Terminal Aerodrome Forecast
Issued by NWS

Home | Current Version | Previous Version | Text Only | Print | Product List | Glossary On
Versions: 1 2 3 4 5 6 7 8 9 10 11 12 13 14 15 16 17 18 19 20 21 22 23 24 25 26 27 28 29 30 31 32 33 34 35
000
FTUS43 KGLD 271120
TAFMCK
TAF
KMCK 271120Z 2712/2812 VRB04KT P6SM BKN080
     FM271400 14007KT P6SM BKN080
     FM271800 15012G17KT P6SM VCSH SCT030 BKN050
     FM272300 14012G17KT P6SM VCTS SCT050CB BKN100
      TEMPO 2801/2805 VRB25G35KT 4SM TSRA BR BKN040CB
     FM280700 14008KT P6SM VCSH SCT015 BKN050
      TEMPO 2808/2812 BKN015=

USA.gov is the U.S. government's official web portal to all federal, state and local government web resources and services.